Riviera Beach, Florida
Current Conditions -  °F | °C
As of 9:53 PM on Tuesday 21 Oct 2014 (Local Time) from KPBI Reporting Station
Broken Clouds Broken Clouds  
Wind Chill: 71°   Ceiling: 25000
Heat Index: 71°   Visibility: 10mi
Dew Point: 71°   Wind: 3mph
Humidity: 100%   Direction: 190°S
Pressure: 29.95"   Gusts: NA
Location:  26.78°N, 80.06°W
Report Text: KPBI 220153Z 19003KT 10SM FEW065 BKN250 22/22 A2995 RMK AO2 SLP140 T02170217
Loading
Personal Weather Stations






























Interactive Weather Map
Tropical Storm Tracking
New forecast layout! Learn more

10-Day Weather Forecast

Advertisements
Track Severe Weather on mobile